Pagrindinis puslapis
METAR-TAF:

METAR-TAF

Oro uostai :

Laoag, Filipinai

platuma: 18-11N, ilguma: 120-32E, Aukštis: 4 m

Dabartinis oras

Ataskaita buvo paskelbta 24 minutes, ne 01:00 UTC
Vėjas 5 kt iš Pietryčių, svyruoja nuo Rytų ir Pietų/Pietryčių
Temperatūra 28°C
Drėgmė 74%
Slėgis 1009 hPa
Matomumas 10 km arba daugiau
Mažai debesys ne aukštis 1800 ft

METAR: RPLI 260100Z 13005KT 100V160 9999 FEW018 28/23 Q1009 NOSIG RMK A2980

Laikas: 09:24 (01:24 UTC)

Prognozė

Ataskaita buvo paskelbta 2 valandos ir 24 minutes, ne 23:00 UTC
Prognozė galioja nuo 26 metu 00 UTC su 26 metu 24 UTC
Vėjas 7 kt iš Šiaurės/Šiaurės Rytų
Matomumas 10 km arba daugiau
Mažai debesys ne aukštis 1800 ft
Išsisklaidę debesys ne aukštis 29000 ft
Laikinai
nuo 26 metu 00 UTC su 26 metu 06 UTC
Vėjas 7 kt iš Šiaurės/Šiaurės Vakarų
Mažai debesys ne aukštis 1800 ft
Su prošvaistėmis ne aukštis 10000 ft

TAF: RPLI 252300Z 2600/2624 02007KT 9999 FEW018 SCT290 TEMPO 2600/2606 34007KT FEW018 BKN100

Orai ataskaitas ir orų prognozės (METAR, TAF).

turimą stotys yra geltonos ir raudonos taškus žemėlapyje.

Perkelti pele per norėdami pamatyti stoties vardą.

Tada spustelėkite, norėdami matyti oro stebėjimo ir prognozės.

Norėdami pakeisti žemėlapį: spustelėkite ant žalios mygtukų su juodo kryžiaus žemyn,; žalią mygtuką su brūkšneliu, jei norite nutolinti; arba žalių rodyklių gretimoms žemėlapius.


METAR-TAF: